Time;durP1;ratioP1;P1;durP2;ratioP2;P2;SDS_P1;SDS_P2;PMS_P1;PMS_P2;Temp;Humidity;BMP_temperature;BMP_pressure;BME280_temperature;BME280_humidity;BME280_pressure;Samples;Min_cycle;Max_cycle;Signal;HPM_P1;HPM_P2
2022/09/19 00:01:34;;;;;;;;;;;;;;;;;;10413019;28;20372;-63
2022/09/19 00:06:36;;;;;;;;;;;;;;;;;;10415416;28;19931;-63
2022/09/19 00:11:38;;;;;;;;;;;;;;;;;;10415944;28;19929;-63
2022/09/19 00:16:41;;;;;;;;;;;;;;;;;;10417988;28;20281;-63
2022/09/19 00:21:43;;;;;;;;;;;;;;;;;;10422589;28;20315;-63
2022/09/19 00:26:45;;;;;;;;;;;;;;;;;;10424047;28;19979;-63
2022/09/19 00:31:47;;;;;;;;;;;;;;;;;;10423185;28;20061;-63
2022/09/19 00:36:50;;;;;;;;;;;;;;;;;;10422105;28;19925;-63
2022/09/19 00:41:52;;;;;;;;;;;;;;;;;;10422730;28;19925;-63
2022/09/19 00:46:54;;;;;;;;;;;;;;;;;;10421700;28;19983;-63
2022/09/19 00:51:56;;;;;;;;;;;;;;;;;;10423033;28;19929;-63
2022/09/19 00:56:58;;;;;;;;;;;;;;;;;;10422924;28;19929;-63
2022/09/19 01:02:04;;;;;;;;;;;;;;;;;;10420748;28;19925;-63
2022/09/19 01:07:06;;;;;;;;;;;;;;;;;;10422563;28;19935;-63
2022/09/19 01:12:08;;;;;;;;;;;;;;;;;;10421262;28;19955;-63
2022/09/19 01:17:11;;;;;;;;;;;;;;;;;;10417765;28;19971;-63
2022/09/19 01:22:13;;;;;;;;;;;;;;;;;;10420350;28;20281;-63
2022/09/19 01:27:17;;;;;;;;;;;;;;;;;;10420618;28;19971;-63
2022/09/19 01:32:22;;;;;;;;;;;;;;;;;;10428710;22;19932;-57
2022/09/19 01:37:27;;;;;;;;;;;;;;;;;;10420165;28;19925;-57
2022/09/19 01:42:29;;;;;;;;;;;;;;;;;;10420885;28;19925;-58
2022/09/19 01:47:31;;;;;;;;;;;;;;;;;;10420720;28;19979;-58
2022/09/19 01:52:34;;;;;;;;;;;;;;;;;;10419918;28;19929;-58
2022/09/19 01:57:36;;;;;;;;;;;;;;;;;;10419547;28;19933;-57
2022/09/19 02:02:38;;;;;;;;;;;;;;;;;;10419424;28;19933;-57
2022/09/19 02:07:43;;;;;;;;;;;;;;;;;;10420237;28;19925;-58
2022/09/19 02:12:46;;;;;;;;;;;;;;;;;;10419058;28;19932;-57
2022/09/19 02:17:51;;;;;;;;;;;;;;;;;;10419881;28;19925;-57
2022/09/19 02:22:53;;;;;;;;;;;;;;;;;;10417759;28;19925;-57
2022/09/19 02:27:55;;;;;;;;;;;;;;;;;;10418808;28;20434;-58
2022/09/19 02:32:57;;;;;;;;;;;;;;;;;;10417610;28;19929;-58
2022/09/19 02:38:01;;;;;;;;;;;;;;;;;;10418757;28;19925;-58
2022/09/19 02:43:04;;;;;;;;;;;;;;;;;;10417860;28;19925;-58
2022/09/19 02:48:06;;;;;;;;;;;;;;;;;;10418007;28;19933;-58
2022/09/19 02:53:08;;;;;;;;;;;;;;;;;;10417462;28;19929;-58
2022/09/19 02:58:11;;;;;;;;;;;;;;;;;;10417133;28;19971;-58
2022/09/19 03:08:36;;;;;;;;;;;;;;;;;;10417859;28;19925;-58
2022/09/19 03:13:38;;;;;;;;;;;;;;;;;;10416913;28;19926;-58
2022/09/19 03:18:40;;;;;;;;;;;;;;;;;;10415453;28;20331;-58
2022/09/19 03:23:44;;;;;;;;;;;;;;;;;;10417352;28;19925;-58
2022/09/19 03:28:46;;;;;;;;;;;;;;;;;;10416483;28;19991;-58
2022/09/19 03:33:49;;;;;;;;;;;;;;;;;;10415282;28;19948;-58
2022/09/19 03:38:51;;;;;;;;;;;;;;;;;;10414975;28;19925;-58
2022/09/19 03:43:53;;;;;;;;;;;;;;;;;;10416082;28;20261;-58
2022/09/19 03:48:55;;;;;;;;;;;;;;;;;;10414880;28;19925;-58
2022/09/19 03:53:57;;;;;;;;;;;;;;;;;;10416169;28;19952;-58
2022/09/19 03:58:59;;;;;;;;;;;;;;;;;;10414136;28;19925;-58
2022/09/19 04:04:01;;;;;;;;;;;;;;;;;;10415695;28;19991;-58
2022/09/19 04:09:03;;;;;;;;;;;;;;;;;;10415135;28;19925;-58
2022/09/19 04:14:05;;;;;;;;;;;;;;;;;;10416009;28;19925;-58
2022/09/19 04:19:09;;;;;;;;;;;;;;;;;;10414302;28;19948;-58
2022/09/19 04:24:11;;;;;;;;;;;;;;;;;;10415125;28;20449;-58
2022/09/19 04:29:13;;;;;;;;;;;;;;;;;;10415620;28;19925;-58
2022/09/19 04:34:15;;;;;;;;;;;;;;;;;;10414166;28;19995;-58
2022/09/19 04:39:17;;;;;;;;;;;;;;;;;;10413095;28;20376;-58
2022/09/19 04:44:25;;;;;;;;;;;;;;;;;;10414709;28;20288;-58
2022/09/19 04:49:35;;;;;;;;;;;;;;;;;;10413690;28;20368;-58
2022/09/19 04:54:37;;;;;;;;;;;;;;;;;;10414475;28;19980;-58
2022/09/19 04:59:39;;;;;;;;;;;;;;;;;;10414093;28;19932;-58
2022/09/19 05:04:43;;;;;;;;;;;;;;;;;;10421235;28;19929;-59
2022/09/19 05:09:47;;;;;;;;;;;;;;;;;;10421814;28;20270;-58
2022/09/19 05:14:49;;;;;;;;;;;;;;;;;;10419470;28;19929;-58
2022/09/19 05:19:51;;;;;;;;;;;;;;;;;;10421247;28;19925;-59
2022/09/19 05:24:53;;;;;;;;;;;;;;;;;;10421938;28;19971;-59
2022/09/19 05:29:58;;;;;;;;;;;;;;;;;;10420849;28;20373;-59
2022/09/19 05:35:01;;;;;;;;;;;;;;;;;;10420808;28;19979;-58
2022/09/19 05:40:03;;;;;;;;;;;;;;;;;;10420920;28;19926;-59
2022/09/19 05:45:05;;;;;;;;;;;;;;;;;;10402039;28;20447;-58
2022/09/19 05:50:08;;;;;;;;;;;;;;;;;;10420629;28;19988;-59
2022/09/19 05:55:10;;;;;;;;;;;;;;;;;;10420167;28;19925;-59
2022/09/19 06:00:12;;;;;;;;;;;;;;;;;;10418987;28;19979;-59
2022/09/19 06:05:14;;;;;;;;;;;;;;;;;;10419994;28;19990;-59
2022/09/19 06:10:16;;;;;;;;;;;;;;;;;;10418371;28;19983;-59
2022/09/19 06:15:18;;;;;;;;;;;;;;;;;;10417893;28;20342;-59
2022/09/19 06:20:20;;;;;;;;;;;;;;;;;;10418728;28;19979;-59
2022/09/19 06:25:22;;;;;;;;;;;;;;;;;;10418883;28;20446;-58
2022/09/19 06:30:24;;;;;;;;;;;;;;;;;;10417570;28;19995;-59
2022/09/19 06:35:28;;;;;;;;;;;;;;;;;;10419543;28;20015;-59
2022/09/19 06:40:31;;;;;;;;;;;;;;;;;;10416364;28;19925;-59
2022/09/19 06:45:37;;;;;;;;;;;;;;;;;;10418778;28;20012;-59
2022/09/19 06:50:39;;;;;;;;;;;;;;;;;;10415998;28;20384;-59
2022/09/19 06:55:41;;;;;;;;;;;;;;;;;;10417728;28;19926;-59
2022/09/19 07:00:47;;;;;;;;;;;;;;;;;;10432227;28;19924;-59
2022/09/19 07:05:53;;;;;;;;;;;;;;;;;;10423006;28;19925;-59
2022/09/19 07:10:55;;;;;;;;;;;;;;;;;;10379135;28;20443;-59
2022/09/19 07:16:00;;;;;;;;;;;;;;;;;;10376826;28;19926;-59
2022/09/19 07:21:02;;;;;;;;;;;;;;;;;;10376017;28;20379;-59
2022/09/19 07:26:04;;;;;;;;;;;;;;;;;;10428603;28;19928;-59
2022/09/19 07:31:06;;;;;;;;;;;;;;;;;;10434622;28;20346;-59
2022/09/19 07:36:11;;;;;;;;;;;;;;;;;;10416953;28;19925;-59
2022/09/19 07:41:13;;;;;;;;;;;;;;;;;;10414716;28;19929;-60
2022/09/19 07:46:17;;;;;;;;;;;;;;;;;;10416033;28;20396;-60
2022/09/19 07:51:20;;;;;;;;;;;;;;;;;;10415450;28;19936;-60
2022/09/19 07:56:25;;;;;;;;;;;;;;;;;;10416395;28;19971;-60
2022/09/19 08:01:27;;;;;;;;;;;;;;;;;;10412296;28;20296;-61
2022/09/19 08:06:29;;;;;;;;;;;;;;;;;;10412834;28;19925;-60
2022/09/19 08:11:32;;;;;;;;;;;;;;;;;;10414008;28;20349;-61
2022/09/19 08:16:34;;;;;;;;;;;;;;;;;;10415281;28;20038;-60
2022/09/19 08:21:36;;;;;;;;;;;;;;;;;;10415844;28;19929;-60
2022/09/19 08:26:38;;;;;;;;;;;;;;;;;;10415714;28;19951;-61
2022/09/19 08:31:40;;;;;;;;;;;;;;;;;;10414950;28;20324;-60
2022/09/19 08:36:42;;;;;;;;;;;;;;;;;;10418785;28;19975;-60
2022/09/19 08:41:44;;;;;;;;;;;;;;;;;;10423621;28;19928;-61
2022/09/19 08:46:46;;;;;;;;;;;;;;;;;;10423389;28;19929;-61
2022/09/19 08:51:49;;;;;;;;;;;;;;;;;;10423170;28;19975;-61
2022/09/19 08:56:50;;;;;;;;;;;;;;;;;;10423206;28;19925;-61
2022/09/19 09:01:53;;;;;;;;;;;;;;;;;;10422909;28;19975;-61
2022/09/19 09:07:14;;;;;;;;;;;;;;;;;;10422723;28;19979;-61
2022/09/19 09:12:17;;;;;;;;;;;;;;;;;;10421777;28;19998;-61
2022/09/19 09:17:19;;;;;;;;;;;;;;;;;;10422328;28;19925;-61
2022/09/19 09:22:21;;;;;;;;;;;;;;;;;;10421453;28;19984;-59
2022/09/19 09:27:23;;;;;;;;;;;;;;;;;;10421273;28;19933;-59
2022/09/19 09:32:26;;;;;;;;;;;;;;;;;;10420832;28;20443;-59
2022/09/19 09:37:29;;;;;;;;;;;;;;;;;;10420885;28;20394;-59
2022/09/19 09:42:32;;;;;;;;;;;;;;;;;;10420681;28;19925;-59
2022/09/19 09:47:39;;;;;;;;;;;;;;;;;;10419665;28;19952;-61
2022/09/19 09:52:41;;;;;;;;;;;;;;;;;;10419834;28;19926;-58
2022/09/19 09:57:43;;;;;;;;;;;;;;;;;;10420501;28;19925;-59
2022/09/19 10:08:10;;;;;;;;;;;;;;;;;;10420397;28;19932;-58
2022/09/19 10:13:12;;;;;;;;;;;;;;;;;;10419330;28;19925;-58
2022/09/19 10:18:15;;;;;;;;;;;;;;;;;;10419280;28;19925;-58
2022/09/19 10:23:18;;;;;;;;;;;;;;;;;;10419104;28;19991;-58
2022/09/19 10:28:20;;;;;;;;;;;;;;;;;;10418869;28;19947;-58
2022/09/19 10:33:25;;;;;;;;;;;;;;;;;;10418673;28;19983;-61
2022/09/19 10:38:28;;;;;;;;;;;;;;;;;;10419164;28;19925;-62
2022/09/19 10:43:33;;;;;;;;;;;;;;;;;;10418313;28;19983;-61
2022/09/19 10:48:35;;;;;;;;;;;;;;;;;;10418748;28;19933;-62
2022/09/19 10:53:38;;;;;;;;;;;;;;;;;;10418523;28;19929;-62
2022/09/19 10:58:42;;;;;;;;;;;;;;;;;;10417595;28;20380;-58
2022/09/19 11:03:44;;;;;;;;;;;;;;;;;;10418204;28;19925;-58
2022/09/19 11:08:46;;;;;;;;;;;;;;;;;;10417987;28;19929;-63
2022/09/19 11:13:49;;;;;;;;;;;;;;;;;;10418057;28;19976;-58
2022/09/19 11:18:51;;;;;;;;;;;;;;;;;;10416921;28;20435;-58
2022/09/19 11:23:56;;;;;;;;;;;;;;;;;;10416978;28;19925;-58
2022/09/19 11:28:59;;;;;;;;;;;;;;;;;;10416588;28;19925;-58
2022/09/19 11:34:01;;;;;;;;;;;;;;;;;;10416270;28;19925;-58
2022/09/19 11:39:23;;;;;;;;;;;;;;;;;;10416229;28;20415;-58
2022/09/19 11:44:45;;;;;;;;;;;;;;;;;;10416719;28;19964;-58
2022/09/19 11:49:50;;;;;;;;;;;;;;;;;;10416564;28;19925;-58
2022/09/19 11:54:53;;;;;;;;;;;;;;;;;;10416598;28;19971;-58
2022/09/19 11:59:55;;;;;;;;;;;;;;;;;;10413422;28;20043;-58
2022/09/19 12:04:57;;;;;;;;;;;;;;;;;;10414212;28;19929;-58
2022/09/19 12:09:59;;;;;;;;;;;;;;;;;;10414812;28;20434;-58
2022/09/19 12:15:02;;;;;;;;;;;;;;;;;;10415973;28;19925;-58
2022/09/19 12:20:04;;;;;;;;;;;;;;;;;;10410519;28;19929;-59
2022/09/19 12:25:06;;;;;;;;;;;;;;;;;;10407716;28;19929;-59
2022/09/19 12:30:11;;;;;;;;;;;;;;;;;;10412819;28;19929;-59
2022/09/19 12:35:13;;;;;;;;;;;;;;;;;;10414918;28;20261;-56
2022/09/19 12:40:26;;;;;;;;;;;;;;;;;;10415508;28;19925;-56
2022/09/19 12:45:28;;;;;;;;;;;;;;;;;;10414862;28;20446;-56
2022/09/19 12:50:33;;;;;;;;;;;;;;;;;;10414637;28;20317;-56
2022/09/19 12:55:38;;;;;;;;;;;;;;;;;;10415418;28;19971;-56
2022/09/19 13:00:42;;;;;;;;;;;;;;;;;;10414553;28;19925;-56
2022/09/19 13:05:45;;;;;;;;;;;;;;;;;;10414431;28;20372;-56
2022/09/19 13:10:47;;;;;;;;;;;;;;;;;;10415461;28;19975;-56
2022/09/19 13:15:49;;;;;;;;;;;;;;;;;;10414819;28;19925;-56
2022/09/19 13:26:16;;;;;;;;;;;;;;;;;;10420576;28;19987;-56
2022/09/19 13:31:18;;;;;;;;;;;;;;;;;;10392280;28;19929;-56
2022/09/19 13:36:20;;;;;;;;;;;;;;;;;;10424211;28;20028;-56
2022/09/19 13:41:22;;;;;;;;;;;;;;;;;;10419779;28;19925;-56
2022/09/19 13:46:24;;;;;;;;;;;;;;;;;;10427399;22;19929;-59
2022/09/19 13:51:27;;;;;;;;;;;;;;;;;;10418660;28;19926;-58
2022/09/19 13:56:34;;;;;;;;;;;;;;;;;;10420831;28;19975;-58
2022/09/19 14:01:36;;;;;;;;;;;;;;;;;;10418895;28;19925;-58
2022/09/19 14:06:38;;;;;;;;;;;;;;;;;;10419024;28;19925;-58
2022/09/19 14:12:02;;;;;;;;;;;;;;;;;;10420008;28;20024;-58
2022/09/19 14:17:06;;;;;;;;;;;;;;;;;;10418780;28;19925;-58
2022/09/19 14:22:09;;;;;;;;;;;;;;;;;;10419934;28;19929;-58
2022/09/19 14:27:11;;;;;;;;;;;;;;;;;;10418593;28;19968;-58
2022/09/19 14:32:14;;;;;;;;;;;;;;;;;;10416452;28;19971;-58
2022/09/19 14:37:21;;;;;;;;;;;;;;;;;;10409189;28;20300;-58
2022/09/19 14:42:27;;;;;;;;;;;;;;;;;;10418190;28;19925;-58
2022/09/19 14:47:35;;;;;;;;;;;;;;;;;;10416268;28;19983;-58
2022/09/19 14:52:37;;;;;;;;;;;;;;;;;;10417949;28;19970;-58
2022/09/19 14:57:39;;;;;;;;;;;;;;;;;;10416473;28;20454;-58
2022/09/19 15:02:41;;;;;;;;;;;;;;;;;;10418809;28;19958;-58
2022/09/19 15:07:43;;;;;;;;;;;;;;;;;;10426271;28;19932;-58
2022/09/19 15:12:45;;;;;;;;;;;;;;;;;;10412529;28;20372;-58
2022/09/19 15:17:47;;;;;;;;;;;;;;;;;;10417507;28;19979;-58
2022/09/19 15:22:51;;;;;;;;;;;;;;;;;;10415553;28;19975;-58
2022/09/19 15:27:53;;;;;;;;;;;;;;;;;;10416350;28;19925;-58
2022/09/19 15:32:56;;;;;;;;;;;;;;;;;;10416342;28;19928;-58
2022/09/19 15:38:01;;;;;;;;;;;;;;;;;;10415372;28;20291;-58
2022/09/19 15:43:05;;;;;;;;;;;;;;;;;;10414359;28;19929;-58
2022/09/19 15:48:07;;;;;;;;;;;;;;;;;;10413922;28;19925;-58
2022/09/19 15:53:09;;;;;;;;;;;;;;;;;;10415132;28;19979;-58
2022/09/19 15:58:11;;;;;;;;;;;;;;;;;;10415497;28;19979;-58
2022/09/19 16:03:13;;;;;;;;;;;;;;;;;;10414264;28;20339;-58
2022/09/19 16:13:36;;;;;;;;;;;;;;;;;;10415359;28;20376;-58
2022/09/19 16:18:38;;;;;;;;;;;;;;;;;;10415182;28;20372;-58
2022/09/19 16:23:40;;;;;;;;;;;;;;;;;;10413614;28;19975;-58
2022/09/19 16:28:43;;;;;;;;;;;;;;;;;;10414925;28;19925;-58
2022/09/19 16:33:45;;;;;;;;;;;;;;;;;;10415547;28;19980;-58
2022/09/19 16:38:47;;;;;;;;;;;;;;;;;;10413826;28;19929;-58
2022/09/19 16:43:49;;;;;;;;;;;;;;;;;;10414442;28;19983;-58
2022/09/19 16:48:51;;;;;;;;;;;;;;;;;;10412250;28;19979;-58
2022/09/19 16:53:55;;;;;;;;;;;;;;;;;;10410730;28;19948;-58
2022/09/19 16:58:57;;;;;;;;;;;;;;;;;;10420294;28;19925;-58
2022/09/19 17:04:02;;;;;;;;;;;;;;;;;;10421475;28;19925;-58
2022/09/19 17:09:05;;;;;;;;;;;;;;;;;;10422681;28;19931;-58
2022/09/19 17:14:07;;;;;;;;;;;;;;;;;;10422496;28;19932;-58
2022/09/19 17:19:09;;;;;;;;;;;;;;;;;;10420762;28;19976;-58
2022/09/19 17:24:11;;;;;;;;;;;;;;;;;;10419863;28;19929;-58
2022/09/19 17:29:13;;;;;;;;;;;;;;;;;;10422039;28;20445;-57
2022/09/19 17:34:15;;;;;;;;;;;;;;;;;;10421096;28;20261;-58
2022/09/19 17:39:17;;;;;;;;;;;;;;;;;;10419850;28;19932;-58
2022/09/19 17:44:20;;;;;;;;;;;;;;;;;;10420495;28;19929;-58
2022/09/19 17:49:23;;;;;;;;;;;;;;;;;;10419577;28;19925;-58
2022/09/19 17:54:28;;;;;;;;;;;;;;;;;;10420980;28;19979;-58
2022/09/19 17:59:31;;;;;;;;;;;;;;;;;;10420839;28;19932;-58
2022/09/19 18:04:33;;;;;;;;;;;;;;;;;;10418948;28;20384;-58
2022/09/19 18:09:35;;;;;;;;;;;;;;;;;;10419590;28;19971;-58
2022/09/19 18:14:37;;;;;;;;;;;;;;;;;;10418284;28;19933;-57
2022/09/19 18:19:40;;;;;;;;;;;;;;;;;;10418273;28;19929;-58
2022/09/19 18:24:42;;;;;;;;;;;;;;;;;;10417827;28;19925;-58
2022/09/19 18:29:44;;;;;;;;;;;;;;;;;;10419035;28;19948;-58
2022/09/19 18:34:46;;;;;;;;;;;;;;;;;;10419359;28;19971;-58
2022/09/19 18:39:48;;;;;;;;;;;;;;;;;;10418074;28;19925;-58
2022/09/19 18:44:50;;;;;;;;;;;;;;;;;;10417605;28;19925;-58
2022/09/19 18:49:53;;;;;;;;;;;;;;;;;;10417914;28;19925;-58
2022/09/19 18:54:57;;;;;;;;;;;;;;;;;;10417851;28;21558;-58
2022/09/19 18:59:59;;;;;;;;;;;;;;;;;;10416763;28;20342;-58
2022/09/19 19:05:01;;;;;;;;;;;;;;;;;;10417263;28;19925;-58
2022/09/19 19:10:05;;;;;;;;;;;;;;;;;;10418033;28;19925;-58
2022/09/19 19:15:08;;;;;;;;;;;;;;;;;;10417150;28;20414;-58
2022/09/19 19:20:11;;;;;;;;;;;;;;;;;;10416682;28;19925;-58
2022/09/19 19:25:13;;;;;;;;;;;;;;;;;;10415521;28;20380;-58
2022/09/19 19:30:15;;;;;;;;;;;;;;;;;;10417911;28;19925;-58
2022/09/19 19:35:17;;;;;;;;;;;;;;;;;;10417089;28;19932;-58
2022/09/19 19:40:20;;;;;;;;;;;;;;;;;;10415817;28;19960;-58
2022/09/19 19:45:22;;;;;;;;;;;;;;;;;;10414927;28;19948;-58
2022/09/19 19:50:24;;;;;;;;;;;;;;;;;;10416675;28;19932;-58
2022/09/19 19:55:27;;;;;;;;;;;;;;;;;;10416495;28;19925;-58
2022/09/19 20:00:29;;;;;;;;;;;;;;;;;;10415219;28;19971;-58
2022/09/19 20:05:31;;;;;;;;;;;;;;;;;;10415207;28;20011;-58
2022/09/19 20:10:33;;;;;;;;;;;;;;;;;;10415369;28;19925;-58
2022/09/19 20:15:35;;;;;;;;;;;;;;;;;;10414194;28;20339;-58
2022/09/19 20:20:38;;;;;;;;;;;;;;;;;;10415974;28;19955;-58
2022/09/19 20:25:40;;;;;;;;;;;;;;;;;;10413983;28;20342;-58
2022/09/19 20:30:42;;;;;;;;;;;;;;;;;;10415804;28;19929;-58
2022/09/19 20:35:45;;;;;;;;;;;;;;;;;;10423954;28;19975;-58
2022/09/19 20:40:47;;;;;;;;;;;;;;;;;;10422771;28;19925;-58
2022/09/19 20:45:49;;;;;;;;;;;;;;;;;;10421220;28;19926;-57
2022/09/19 20:50:51;;;;;;;;;;;;;;;;;;10423498;28;19931;-58
2022/09/19 20:55:53;;;;;;;;;;;;;;;;;;10421769;28;20418;-58
2022/09/19 21:00:55;;;;;;;;;;;;;;;;;;10423076;28;19925;-58
2022/09/19 21:05:57;;;;;;;;;;;;;;;;;;10419698;28;20011;-58
2022/09/19 21:10:59;;;;;;;;;;;;;;;;;;10420272;28;19983;-58
2022/09/19 21:16:03;;;;;;;;;;;;;;;;;;10419313;28;20395;-58
2022/09/19 21:21:05;;;;;;;;;;;;;;;;;;10420925;28;19961;-58
2022/09/19 21:26:07;;;;;;;;;;;;;;;;;;10419695;28;20336;-58
2022/09/19 21:31:09;;;;;;;;;;;;;;;;;;10421357;28;20453;-58
2022/09/19 21:36:12;;;;;;;;;;;;;;;;;;10421090;28;20016;-58
2022/09/19 21:41:14;;;;;;;;;;;;;;;;;;10419502;28;19928;-58
2022/09/19 21:46:16;;;;;;;;;;;;;;;;;;10418333;28;19979;-58
2022/09/19 21:51:18;;;;;;;;;;;;;;;;;;10420193;28;20015;-57
2022/09/19 21:56:20;;;;;;;;;;;;;;;;;;10420321;28;19983;-58
2022/09/19 22:01:22;;;;;;;;;;;;;;;;;;10419873;28;19929;-58
2022/09/19 22:06:24;;;;;;;;;;;;;;;;;;10418644;28;19932;-60
2022/09/19 22:11:26;;;;;;;;;;;;;;;;;;10420387;28;19979;-60
2022/09/19 22:16:30;;;;;;;;;;;;;;;;;;10419627;28;19929;-61
2022/09/19 22:21:32;;;;;;;;;;;;;;;;;;10418221;28;19931;-60
2022/09/19 22:26:35;;;;;;;;;;;;;;;;;;10418629;28;19931;-60
2022/09/19 22:31:37;;;;;;;;;;;;;;;;;;10419583;28;19929;-60
2022/09/19 22:36:39;;;;;;;;;;;;;;;;;;10418834;28;19948;-60
2022/09/19 22:41:41;;;;;;;;;;;;;;;;;;10417441;28;20351;-60
2022/09/19 22:46:43;;;;;;;;;;;;;;;;;;10417644;28;19929;-60
2022/09/19 22:51:45;;;;;;;;;;;;;;;;;;10417662;28;19926;-60
2022/09/19 22:56:48;;;;;;;;;;;;;;;;;;10418301;28;19975;-60
2022/09/19 23:01:53;;;;;;;;;;;;;;;;;;10417315;28;19929;-60
2022/09/19 23:06:55;;;;;;;;;;;;;;;;;;10415872;28;19964;-60
2022/09/19 23:11:57;;;;;;;;;;;;;;;;;;10418016;28;19926;-60
2022/09/19 23:16:59;;;;;;;;;;;;;;;;;;10416726;28;19971;-60
2022/09/19 23:22:02;;;;;;;;;;;;;;;;;;10417116;28;20277;-60
2022/09/19 23:27:04;;;;;;;;;;;;;;;;;;10415345;28;19925;-60
2022/09/19 23:32:06;;;;;;;;;;;;;;;;;;10417307;28;19968;-60
2022/09/19 23:37:08;;;;;;;;;;;;;;;;;;10416197;28;19925;-60
2022/09/19 23:42:10;;;;;;;;;;;;;;;;;;10416347;28;19975;-60
2022/09/19 23:47:12;;;;;;;;;;;;;;;;;;10415369;28;19979;-60
2022/09/19 23:52:14;;;;;;;;;;;;;;;;;;10415978;28;20369;-60
2022/09/19 23:57:16;;;;;;;;;;;;;;;;;;10415363;28;19979;-60
